createdAt,value
2019-05-12T00:00:48.394Z,93.85
2019-05-12T00:03:19.234Z,93.85
2019-05-12T00:19:58.840Z,92.28
2019-05-12T00:25:23.071Z,92.56
2019-05-12T00:30:58.057Z,93.10
2019-05-12T00:36:30.633Z,92.40
2019-05-12T00:39:00.927Z,93.03
2019-05-12T00:41:50.623Z,93.02
2019-05-12T00:44:39.927Z,92.50
2019-05-12T00:47:29.571Z,92.80
2019-05-12T00:49:59.875Z,92.76
2019-05-12T00:52:30.199Z,93.59
2019-05-12T00:55:00.562Z,94.35
2019-05-12T00:57:30.926Z,93.60
2019-05-12T01:00:01.324Z,93.97
2019-05-12T01:02:31.988Z,92.94
2019-05-12T01:05:02.409Z,93.80
2019-05-12T01:07:32.756Z,92.83
2019-05-12T01:10:22.089Z,92.32
2019-05-12T01:12:52.686Z,92.12
2019-05-12T01:15:23.030Z,93.18
2019-05-12T01:17:53.688Z,93.18
2019-05-12T01:20:24.949Z,93.93
2019-05-12T01:22:57.688Z,94.22
2019-05-12T01:25:39.345Z,93.33
2019-05-12T01:28:48.781Z,93.22
2019-05-12T01:31:45.683Z,92.68
2019-05-12T01:34:38.274Z,93.75
2019-05-12T01:37:27.975Z,93.67
2019-05-12T01:40:00.254Z,94.54
2019-05-12T01:42:31.915Z,94.03
2019-05-12T01:45:02.306Z,93.78
2019-05-12T01:47:32.588Z,93.52
2019-05-12T01:50:02.939Z,93.17
2019-05-12T01:52:34.755Z,92.43
2019-05-12T01:55:24.173Z,92.39
2019-05-12T01:58:14.759Z,93.76
2019-05-12T02:01:04.230Z,93.06
2019-05-12T02:03:53.804Z,92.06
2019-05-12T02:06:43.101Z,92.13
2019-05-12T02:09:34.357Z,92.30
2019-05-12T02:12:05.006Z,93.72
2019-05-12T02:17:28.197Z,92.13
2019-05-12T02:19:58.723Z,92.93
2019-05-12T02:22:30.862Z,92.73
2019-05-12T02:25:01.237Z,92.95
2019-05-12T02:27:50.807Z,92.96
2019-05-12T02:30:41.899Z,92.86
2019-05-12T02:33:34.791Z,92.17
2019-05-12T02:36:26.129Z,92.62
2019-05-12T02:39:16.353Z,92.85
2019-05-12T02:42:05.825Z,93.21
2019-05-12T02:44:36.269Z,92.30
2019-05-12T02:47:25.844Z,92.80
2019-05-12T02:50:16.519Z,92.87
2019-05-12T02:53:06.522Z,93.11
2019-05-12T02:55:57.668Z,93.19
2019-05-12T02:58:29.553Z,93.07
2019-05-12T03:01:20.190Z,93.30
2019-05-12T03:04:10.833Z,93.10
2019-05-12T03:06:44.611Z,93.55
2019-05-12T03:09:15.464Z,93.59
2019-05-12T03:11:50.368Z,93.70
2019-05-12T03:14:20.685Z,93.71
2019-05-12T03:16:53.957Z,94.06
2019-05-12T03:19:25.261Z,94.00
2019-05-12T03:22:14.817Z,94.24
2019-05-12T03:25:05.931Z,94.91
2019-05-12T03:27:37.387Z,94.27
2019-05-12T03:30:29.676Z,94.63
2019-05-12T03:33:20.423Z,95.44
2019-05-12T03:35:54.921Z,96.21
2019-05-12T03:38:25.030Z,95.76
2019-05-12T03:41:14.896Z,95.19
2019-05-12T03:43:45.397Z,95.14
2019-05-12T03:46:16.336Z,94.44
2019-05-12T03:49:06.027Z,94.68
2019-05-12T03:51:36.390Z,94.34
2019-05-12T03:54:25.738Z,94.13
2019-05-12T03:57:07.363Z,94.02
2019-05-12T03:59:37.746Z,93.42
2019-05-12T04:02:08.513Z,93.76
2019-05-12T04:04:38.896Z,93.81
2019-05-12T04:07:28.522Z,93.24
2019-05-12T04:10:17.863Z,93.21
2019-05-12T04:13:07.880Z,93.72
2019-05-12T04:15:57.225Z,93.11
2019-05-12T04:18:46.783Z,92.42
2019-05-12T04:21:36.138Z,91.85
2019-05-12T04:24:25.797Z,91.86
2019-05-12T04:26:56.081Z,91.91
2019-05-12T04:29:28.706Z,92.39
2019-05-12T04:32:39.634Z,93.01
2019-05-12T04:35:28.959Z,93.08
2019-05-12T04:38:18.576Z,94.22
2019-05-12T04:40:48.902Z,92.39
2019-05-12T04:43:38.508Z,92.12
2019-05-12T04:46:27.799Z,91.46
2019-05-12T04:49:18.767Z,92.26
2019-05-12T04:51:49.059Z,91.87
2019-05-12T04:54:38.657Z,91.52
2019-05-12T04:57:09.343Z,90.92
2019-05-12T04:59:58.957Z,91.48
2019-05-12T05:02:48.264Z,91.41
2019-05-12T05:05:18.627Z,91.07
2019-05-12T05:08:08.045Z,90.41
2019-05-12T05:10:57.411Z,90.72
2019-05-12T05:13:46.997Z,90.83
2019-05-12T05:16:36.576Z,91.39
2019-05-12T05:19:26.168Z,90.46
2019-05-12T05:21:56.481Z,90.10
2019-05-12T05:24:27.716Z,90.05
2019-05-12T05:26:58.042Z,90.38
2019-05-12T05:29:47.372Z,89.40
2019-05-12T05:32:17.755Z,90.30
2019-05-12T05:35:08.748Z,90.31
2019-05-12T05:37:58.069Z,90.62
2019-05-12T05:40:47.715Z,90.95
2019-05-12T05:43:37.092Z,91.28
2019-05-12T05:46:26.661Z,91.21
2019-05-12T05:49:16.021Z,90.66
2019-05-12T05:52:06.008Z,90.97
2019-05-12T05:54:55.345Z,90.06
2019-05-12T05:58:08.568Z,90.04
2019-05-12T06:00:39.445Z,90.29
2019-05-12T06:03:30.762Z,89.32
2019-05-12T06:06:20.233Z,89.73
2019-05-12T06:09:10.918Z,89.82
2019-05-12T06:12:05.265Z,89.67
2019-05-12T06:14:34.252Z,89.87
2019-05-12T06:17:23.664Z,89.17
2019-05-12T06:20:13.671Z,88.79
2019-05-12T06:23:04.298Z,89.02
2019-05-12T06:25:46.404Z,89.73
2019-05-12T06:28:31.061Z,88.56
2019-05-12T06:31:19.070Z,88.53
2019-05-12T06:34:15.206Z,86.98
2019-05-12T06:37:05.108Z,87.47
2019-05-12T06:39:34.362Z,89.25
2019-05-12T06:42:12.375Z,86.99
2019-05-12T06:44:39.286Z,86.17
2019-05-12T06:47:28.586Z,85.65
2019-05-12T06:50:18.186Z,85.14
2019-05-12T06:53:07.732Z,85.42
2019-05-12T06:55:39.450Z,85.57
2019-05-12T07:01:39.076Z,83.95
2019-05-12T07:04:28.405Z,84.82
2019-05-12T07:07:00.671Z,84.17
2019-05-12T07:10:15.242Z,83.55
2019-05-12T07:13:05.451Z,84.33
2019-05-12T07:15:54.466Z,83.74
2019-05-12T07:18:43.841Z,83.90
2019-05-12T07:21:24.891Z,84.19
2019-05-12T07:24:14.214Z,81.49
2019-05-12T07:26:47.959Z,80.35
2019-05-12T07:29:17.254Z,78.97
2019-05-12T07:32:34.388Z,77.73
2019-05-12T07:35:05.082Z,77.34
2019-05-12T07:37:56.770Z,76.91
2019-05-12T07:40:30.047Z,76.15
2019-05-12T07:43:33.829Z,71.87
2019-05-12T07:48:58.980Z,75.47
2019-05-12T07:51:38.284Z,76.43
2019-05-12T07:54:04.049Z,76.14
2019-05-12T07:56:54.038Z,72.78
2019-05-12T07:59:26.633Z,72.00
2019-05-12T08:01:58.898Z,70.80
2019-05-12T08:04:48.424Z,70.46
2019-05-12T08:07:19.867Z,67.81
2019-05-12T08:09:54.464Z,70.75
2019-05-12T08:12:30.308Z,71.03
2019-05-12T08:15:19.636Z,70.84
2019-05-12T08:20:43.560Z,77.31
2019-05-12T08:23:14.294Z,69.44
2019-05-12T08:25:44.953Z,69.10
2019-05-12T08:28:34.679Z,68.48
2019-05-12T08:30:57.339Z,67.67
2019-05-12T08:33:34.760Z,70.08
2019-05-12T08:36:24.998Z,67.19
2019-05-12T08:38:57.420Z,68.03
2019-05-12T08:41:29.167Z,69.04
2019-05-12T08:44:24.827Z,66.53
2019-05-12T08:47:12.795Z,68.28
2019-05-12T08:49:51.151Z,67.66
2019-05-12T08:52:15.870Z,66.41
2019-05-12T08:55:05.557Z,65.71
2019-05-12T08:58:00.758Z,61.52
2019-05-12T09:00:54.863Z,57.03
2019-05-12T09:03:30.099Z,57.79
2019-05-12T09:06:19.694Z,58.36
2019-05-12T09:08:49.638Z,60.50
2019-05-12T09:11:20.062Z,62.10
2019-05-12T09:14:15.572Z,57.96
2019-05-12T09:17:07.492Z,56.74
2019-05-12T09:20:13.488Z,50.29
2019-05-12T09:22:52.715Z,48.23
2019-05-12T09:25:25.750Z,51.37
2019-05-12T09:27:57.032Z,52.35
2019-05-12T09:30:49.532Z,54.55
2019-05-12T09:34:17.171Z,54.41
2019-05-12T09:37:06.808Z,54.83
2019-05-12T09:39:42.849Z,59.07
2019-05-12T09:42:33.404Z,61.54
2019-05-12T09:45:10.123Z,56.00
2019-05-12T09:48:39.025Z,50.74
2019-05-12T09:51:08.003Z,50.25
2019-05-12T09:53:42.744Z,48.08
2019-05-12T09:56:14.223Z,52.40
2019-05-12T09:59:01.831Z,53.24
2019-05-12T10:01:37.408Z,50.24
2019-05-12T10:04:03.458Z,50.30
2019-05-12T10:06:35.437Z,49.03
2019-05-12T10:09:24.917Z,53.10
2019-05-12T10:12:00.856Z,53.30
2019-05-12T10:14:48.133Z,52.81
2019-05-12T10:17:43.271Z,50.66
2019-05-12T10:26:11.619Z,55.27
2019-05-12T10:29:16.492Z,55.64
2019-05-12T10:31:39.388Z,54.50
2019-05-12T10:34:37.475Z,55.36
2019-05-12T10:37:03.780Z,57.13
2019-05-12T10:40:13.908Z,58.58
2019-05-12T10:42:47.790Z,58.44
2019-05-12T10:45:37.372Z,57.19
2019-05-12T10:48:26.723Z,56.66
2019-05-12T10:51:16.110Z,53.64
2019-05-12T10:53:48.714Z,57.53
2019-05-12T10:59:48.484Z,60.19
2019-05-12T11:02:20.318Z,61.78
2019-05-12T11:05:21.235Z,57.00
2019-05-12T11:08:11.054Z,57.10
2019-05-12T11:10:50.352Z,59.54
2019-05-12T11:13:18.303Z,57.93
2019-05-12T11:15:51.047Z,56.80
2019-05-12T11:18:25.996Z,55.41
2019-05-12T11:21:00.365Z,57.71
2019-05-12T11:23:31.616Z,58.46
2019-05-12T11:26:14.241Z,56.94
2019-05-12T11:28:59.152Z,58.36
2019-05-12T11:31:44.157Z,59.46
2019-05-12T11:37:10.523Z,56.07
2019-05-12T11:39:47.531Z,52.65
2019-05-12T11:42:36.419Z,54.69
2019-05-12T11:45:28.462Z,56.91
2019-05-12T11:48:34.531Z,56.27
2019-05-12T11:51:08.081Z,54.96
2019-05-12T11:54:03.651Z,54.39
2019-05-12T11:56:55.732Z,54.46
2019-05-12T11:59:28.945Z,56.65
2019-05-12T12:01:59.894Z,58.46
2019-05-12T12:04:49.819Z,59.23
2019-05-12T12:07:50.656Z,59.46
2019-05-12T12:10:14.059Z,58.09
2019-05-12T12:13:03.933Z,58.88
2019-05-12T12:19:05.870Z,62.78
2019-05-12T12:21:40.313Z,63.87
2019-05-12T12:24:31.658Z,62.30
2019-05-12T12:27:03.858Z,60.50
2019-05-12T12:29:35.128Z,58.23
2019-05-12T12:32:44.821Z,56.60
2019-05-12T12:38:44.130Z,53.75
2019-05-12T12:41:35.498Z,55.22
2019-05-12T12:47:15.906Z,58.76
2019-05-12T12:50:06.760Z,57.50
2019-05-12T12:53:01.967Z,58.09
2019-05-12T12:55:58.324Z,57.52
2019-05-12T12:58:44.608Z,58.43
2019-05-12T13:01:27.393Z,59.59
2019-05-12T13:04:14.806Z,57.76
2019-05-12T13:07:04.754Z,54.81
2019-05-12T13:10:03.607Z,49.72
2019-05-12T13:12:26.653Z,46.03
2019-05-12T13:18:33.886Z,41.26
2019-05-12T13:21:04.613Z,35.18
2019-05-12T13:23:41.381Z,36.42
2019-05-12T13:26:13.442Z,35.40
2019-05-12T13:28:45.543Z,37.54
2019-05-12T13:31:18.127Z,38.99
2019-05-12T13:37:14.364Z,48.72
2019-05-12T13:39:41.374Z,50.45
2019-05-12T13:42:35.911Z,50.26
2019-05-12T13:45:04.799Z,52.93
2019-05-12T13:47:40.048Z,41.67
2019-05-12T13:50:21.400Z,36.07
2019-05-12T13:53:10.297Z,28.28
2019-05-12T13:55:49.511Z,27.30
2019-05-12T13:58:21.059Z,28.94
2019-05-12T14:01:10.537Z,32.34
2019-05-12T14:06:37.954Z,33.83
2019-05-12T14:09:27.241Z,29.08
2019-05-12T14:12:16.938Z,27.17
2019-05-12T14:14:47.247Z,25.69
2019-05-12T14:17:17.602Z,24.15
2019-05-12T14:20:26.107Z,22.92
2019-05-12T14:22:53.948Z,23.61
2019-05-12T14:25:45.610Z,27.65
2019-05-12T14:28:39.633Z,26.94
2019-05-12T14:31:07.023Z,25.39
2019-05-12T14:33:39.388Z,23.84
2019-05-12T14:36:32.033Z,23.70
2019-05-12T14:39:23.976Z,22.12
2019-05-12T14:42:13.655Z,22.89
2019-05-12T14:45:04.723Z,24.23
2019-05-12T14:47:38.898Z,27.89
2019-05-12T14:50:29.837Z,33.38
2019-05-12T14:53:19.487Z,38.78
2019-05-12T14:56:08.849Z,39.18
2019-05-12T14:59:17.141Z,31.55
2019-05-12T15:01:58.948Z,27.57
2019-05-12T15:05:10.592Z,25.67
2019-05-12T15:07:59.868Z,25.97
2019-05-12T15:10:28.328Z,26.45
2019-05-12T15:12:58.876Z,28.68
2019-05-12T15:15:50.054Z,29.42
2019-05-12T15:18:46.754Z,28.62
2019-05-12T15:24:15.503Z,25.41
2019-05-12T15:26:43.413Z,24.65
2019-05-12T15:35:40.416Z,24.53
2019-05-12T15:38:34.080Z,26.00
2019-05-12T15:41:16.849Z,29.02
2019-05-12T15:43:56.745Z,32.55
2019-05-12T15:46:46.744Z,30.67
2019-05-12T15:49:36.508Z,28.01
2019-05-12T15:52:29.820Z,25.01
2019-05-12T15:55:18.553Z,25.35
2019-05-12T15:58:10.034Z,27.71
2019-05-12T16:01:04.552Z,31.58
2019-05-12T16:07:09.253Z,32.54
2019-05-12T16:10:08.041Z,33.52
2019-05-12T16:13:00.671Z,32.45
2019-05-12T16:18:31.429Z,37.08
2019-05-12T16:24:34.039Z,35.13
2019-05-12T16:27:44.267Z,35.96
2019-05-12T16:30:58.850Z,36.19
2019-05-12T16:33:29.574Z,34.15
2019-05-12T16:39:04.266Z,36.85
2019-05-12T16:41:48.417Z,36.18
2019-05-12T16:44:43.834Z,35.32
2019-05-12T16:47:35.408Z,34.38
2019-05-12T16:50:31.527Z,36.31
2019-05-12T16:56:33.930Z,38.33
2019-05-12T16:59:40.596Z,38.34
2019-05-12T17:02:19.669Z,38.02
2019-05-12T17:05:17.735Z,38.99
2019-05-12T17:07:50.434Z,39.85
2019-05-12T17:10:21.281Z,38.98
2019-05-12T17:13:13.851Z,40.55
2019-05-12T17:16:05.544Z,39.80
2019-05-12T17:19:15.475Z,39.74
2019-05-12T17:22:25.266Z,39.98
2019-05-12T17:25:18.771Z,41.10
2019-05-12T17:28:03.793Z,39.29
2019-05-12T17:31:16.816Z,39.41
2019-05-12T17:33:54.356Z,39.52
2019-05-12T17:36:33.783Z,40.01
2019-05-12T17:39:24.117Z,40.42
2019-05-12T17:41:56.342Z,41.50
2019-05-12T17:44:45.813Z,39.69
2019-05-12T17:47:21.198Z,39.98
2019-05-12T17:50:00.544Z,41.78
2019-05-12T17:52:56.939Z,40.80
2019-05-12T17:55:26.421Z,40.69
2019-05-12T17:58:16.115Z,40.33
2019-05-12T18:00:56.754Z,40.50
2019-05-12T18:06:44.222Z,39.83
2019-05-12T18:12:49.753Z,41.79
2019-05-12T18:15:39.280Z,43.51
2019-05-12T18:18:37.255Z,43.51
2019-05-12T18:21:04.620Z,41.74
2019-05-12T18:23:39.019Z,43.77
2019-05-12T18:26:14.868Z,44.28
2019-05-12T18:28:44.289Z,43.27
2019-05-12T18:31:34.052Z,43.54
2019-05-12T18:34:22.164Z,43.68
2019-05-12T18:37:01.628Z,43.99
2019-05-12T18:39:54.592Z,43.87
2019-05-12T18:43:03.907Z,45.77
2019-05-12T18:46:20.740Z,45.73
2019-05-12T18:49:12.718Z,45.40
2019-05-12T18:51:49.128Z,46.28
2019-05-12T18:54:20.255Z,44.75
2019-05-12T19:03:10.065Z,46.39
2019-05-12T19:06:03.335Z,46.30
2019-05-12T19:08:35.807Z,47.58
2019-05-12T19:11:18.814Z,48.42
2019-05-12T19:20:05.216Z,50.19
2019-05-12T19:22:59.924Z,49.66
2019-05-12T19:26:06.841Z,52.32
2019-05-12T19:28:31.311Z,51.59
2019-05-12T19:31:14.216Z,50.13
2019-05-12T19:36:58.285Z,52.65
2019-05-12T19:39:45.761Z,54.79
2019-05-12T19:49:00.301Z,54.97
2019-05-12T19:51:30.840Z,56.46
2019-05-12T19:54:25.541Z,54.22
2019-05-12T19:56:56.765Z,54.88
2019-05-12T19:59:31.133Z,54.53
2019-05-12T20:02:23.595Z,56.98
2019-05-12T20:05:34.404Z,57.64
2019-05-12T20:08:27.688Z,56.18
2019-05-12T20:11:20.126Z,56.79
2019-05-12T20:14:27.867Z,55.47
2019-05-12T20:17:00.788Z,57.40
2019-05-12T20:19:53.942Z,56.00
2019-05-12T20:25:34.193Z,57.93
2019-05-12T20:28:24.694Z,57.40
2019-05-12T20:34:10.499Z,58.28
2019-05-12T20:36:49.183Z,56.29
2019-05-12T20:39:22.398Z,56.95
2019-05-12T20:42:14.231Z,60.37
2019-05-12T20:44:44.743Z,58.85
2019-05-12T20:47:39.123Z,59.59
2019-05-12T20:50:11.781Z,59.42
2019-05-12T20:53:04.002Z,62.37
2019-05-12T20:55:54.771Z,63.54
2019-05-12T20:58:46.562Z,59.50
2019-05-12T21:04:39.383Z,61.68
2019-05-12T21:10:20.012Z,62.28
2019-05-12T21:12:54.357Z,61.60
2019-05-12T21:15:45.959Z,63.84
2019-05-12T21:18:47.815Z,64.30
2019-05-12T21:21:14.311Z,66.02
2019-05-12T21:23:53.504Z,67.02
2019-05-12T21:26:17.908Z,65.75
2019-05-12T21:28:49.502Z,65.50
2019-05-12T21:31:39.414Z,67.94
2019-05-12T21:37:25.422Z,66.15
2019-05-12T21:41:02.022Z,67.67
2019-05-12T21:42:53.585Z,69.10
2019-05-12T21:45:30.719Z,69.50
2019-05-12T21:47:58.421Z,69.03
2019-05-12T21:50:37.930Z,65.18
2019-05-12T21:53:44.201Z,66.84
2019-05-12T21:59:29.066Z,67.20
2019-05-12T22:05:21.977Z,67.96
2019-05-12T22:07:45.640Z,68.68
2019-05-12T22:10:38.011Z,69.33
2019-05-12T22:16:43.740Z,71.09
2019-05-12T22:19:31.482Z,71.75
2019-05-12T22:22:08.136Z,70.97
2019-05-12T22:24:50.425Z,68.09
2019-05-12T22:27:32.259Z,69.94
2019-05-12T22:30:04.424Z,70.70
2019-05-12T22:32:59.515Z,71.20
2019-05-12T22:36:14.000Z,72.33
2019-05-12T22:38:44.556Z,72.54
2019-05-12T22:41:17.829Z,72.89
2019-05-12T22:43:53.843Z,71.64
2019-05-12T22:46:45.463Z,72.60
2019-05-12T22:49:57.000Z,72.23
2019-05-12T22:52:26.018Z,74.67
2019-05-12T22:54:59.400Z,74.38
2019-05-12T22:57:38.260Z,75.04
2019-05-12T23:02:49.559Z,75.61
2019-05-12T23:06:01.522Z,76.07
2019-05-12T23:08:51.066Z,76.55
2019-05-12T23:11:41.717Z,76.34
2019-05-12T23:14:54.167Z,76.95
2019-05-12T23:17:45.258Z,76.12
2019-05-12T23:20:13.821Z,77.15
2019-05-12T23:23:09.142Z,77.27
2019-05-12T23:26:00.429Z,76.69
2019-05-12T23:31:30.015Z,76.81
2019-05-12T23:37:06.742Z,76.14
2019-05-12T23:39:39.911Z,75.57
2019-05-12T23:42:53.560Z,73.63
2019-05-12T23:45:24.344Z,73.84
2019-05-12T23:47:56.210Z,71.97
2019-05-12T23:50:26.565Z,75.22
2019-05-12T23:52:57.044Z,75.33
2019-05-12T23:55:29.463Z,75.00
2019-05-12T23:58:19.817Z,75.58
